createdAt,value
2023-03-13T00:00:12.777Z,987.57
2023-03-13T00:01:12.818Z,987.54
2023-03-13T00:02:12.775Z,987.50
2023-03-13T00:03:33.725Z,987.49
2023-03-13T00:04:12.718Z,987.49
2023-03-13T00:05:12.769Z,987.49
2023-03-13T00:06:12.690Z,987.55
2023-03-13T07:38:01.395Z,983.14
2023-03-13T07:39:00.946Z,983.33
2023-03-13T07:41:06.560Z,983.23
2023-03-13T07:42:05.534Z,983.19
2023-03-13T07:44:10.608Z,983.15
2023-03-13T07:45:11.347Z,983.21
2023-03-13T07:47:15.659Z,983.19
2023-03-13T07:48:14.766Z,983.24
2023-03-13T07:50:19.592Z,983.28
2023-03-13T07:51:21.686Z,983.21
2023-03-13T18:56:51.368Z,975.87
2023-03-13T18:57:21.637Z,975.87
2023-03-13T19:13:32.013Z,976.00
2023-03-13T19:13:59.136Z,976.00
2023-03-13T19:17:04.731Z,976.08
2023-03-13T19:19:23.679Z,976.09
2023-03-13T19:20:11.905Z,976.04
2023-03-13T19:31:47.366Z,976.51
2023-03-13T19:32:47.468Z,976.62
2023-03-13T19:52:26.108Z,976.52
2023-03-13T19:53:18.902Z,976.44
2023-03-13T19:54:18.847Z,976.32
2023-03-13T19:55:18.874Z,976.33
2023-03-13T19:58:09.018Z,976.25
2023-03-13T19:59:05.508Z,976.32
2023-03-13T20:01:44.177Z,976.27
2023-03-13T20:07:24.970Z,976.38
2023-03-13T20:07:46.328Z,976.36
2023-03-13T20:08:46.333Z,976.34
2023-03-13T20:09:46.481Z,976.37
2023-03-13T20:10:46.267Z,976.30
2023-03-13T20:11:46.238Z,976.27
2023-03-13T20:12:46.236Z,976.15
2023-03-13T20:13:46.209Z,976.11
2023-03-13T20:14:46.188Z,976.14
2023-03-13T20:15:46.285Z,976.16
2023-03-13T20:16:46.163Z,976.19
2023-03-13T20:17:46.199Z,976.23
2023-03-13T20:18:46.125Z,976.17
2023-03-13T20:19:46.127Z,976.22
2023-03-13T20:20:46.099Z,976.27
2023-03-13T20:21:46.083Z,976.12
2023-03-13T20:22:46.140Z,975.85
2023-03-13T20:23:46.062Z,975.69
2023-03-13T20:24:46.033Z,975.69
2023-03-13T20:25:46.016Z,975.43
2023-03-13T20:26:45.997Z,975.40
2023-03-13T20:27:45.987Z,975.19
2023-03-13T20:28:45.987Z,974.98
2023-03-13T20:29:45.955Z,974.63
2023-03-13T20:30:45.984Z,974.51
2023-03-13T20:31:45.934Z,974.48
2023-03-13T20:32:58.493Z,974.41
2023-03-13T20:33:45.890Z,974.45
2023-03-13T20:34:45.884Z,974.38
2023-03-13T20:35:45.899Z,974.24
2023-03-13T20:36:45.840Z,974.31
2023-03-13T20:37:45.964Z,974.50
2023-03-13T20:38:45.809Z,974.52
2023-03-13T20:39:45.805Z,974.25
2023-03-13T20:40:45.788Z,974.34
2023-03-13T20:41:45.819Z,974.34
2023-03-13T20:42:45.823Z,974.37
2023-03-13T20:43:45.729Z,974.36
2023-03-13T20:44:45.793Z,974.34
2023-03-13T20:45:45.700Z,974.27
2023-03-13T20:46:45.763Z,974.09
2023-03-13T20:47:45.678Z,974.04
2023-03-13T20:48:45.660Z,973.99
2023-03-13T20:49:45.630Z,973.85
2023-03-13T20:50:45.663Z,973.78
2023-03-13T20:51:45.602Z,973.74
2023-03-13T20:52:45.575Z,973.64
2023-03-13T20:53:45.561Z,973.56
2023-03-13T20:54:45.617Z,973.62
2023-03-13T20:55:47.932Z,973.63
2023-03-13T20:56:45.514Z,973.68
2023-03-13T20:57:52.309Z,973.58
2023-03-13T20:58:45.475Z,973.53
2023-03-13T20:59:45.467Z,973.61
2023-03-13T21:00:45.502Z,973.56
2023-03-13T21:01:45.975Z,973.67
2023-03-13T21:02:45.461Z,973.70
2023-03-13T21:03:46.326Z,973.82
2023-03-13T21:04:45.452Z,973.88
2023-03-13T21:05:46.374Z,973.93
2023-03-13T21:06:45.352Z,974.01
2023-03-13T21:07:46.190Z,973.99
2023-03-13T21:08:45.383Z,974.01
2023-03-13T21:09:45.839Z,974.07
2023-03-13T21:10:45.290Z,974.02
2023-03-13T21:11:45.271Z,974.01
2023-03-13T21:12:45.431Z,974.04
2023-03-13T21:13:45.277Z,974.01
2023-03-13T21:14:45.224Z,974.04
2023-03-13T21:15:45.194Z,974.13
2023-03-13T21:16:45.198Z,974.13
2023-03-13T21:17:45.201Z,974.18
2023-03-13T21:18:45.165Z,974.24
2023-03-13T21:19:45.248Z,974.25
2023-03-13T21:20:45.210Z,974.21
2023-03-13T21:21:46.782Z,974.18
2023-03-13T21:22:45.188Z,974.10
2023-03-13T21:23:45.071Z,974.08
2023-03-13T21:24:45.055Z,974.02
2023-03-13T21:25:45.049Z,974.06
2023-03-13T21:26:45.023Z,974.06
2023-03-13T21:27:45.174Z,974.06
2023-03-13T21:28:44.999Z,974.06
2023-03-13T21:29:44.982Z,974.10
2023-03-13T21:30:44.960Z,974.12
2023-03-13T21:31:45.108Z,974.07
2023-03-13T21:32:45.005Z,974.06
2023-03-13T21:33:44.978Z,974.06
2023-03-13T21:34:44.889Z,974.08
2023-03-13T21:35:44.956Z,974.14
2023-03-13T21:36:44.859Z,974.09
2023-03-13T21:37:44.851Z,974.13
2023-03-13T21:38:44.825Z,974.14
2023-03-13T21:39:47.405Z,974.12
2023-03-13T21:40:44.797Z,974.09
2023-03-13T21:41:44.775Z,974.14
2023-03-13T21:42:44.833Z,974.19
2023-03-13T21:43:44.858Z,974.14
2023-03-13T21:44:44.776Z,974.23
2023-03-13T21:45:44.709Z,974.19
2023-03-13T21:46:44.771Z,974.26
2023-03-13T21:47:44.735Z,974.30
2023-03-13T21:49:44.653Z,974.41
2023-03-13T21:50:44.628Z,974.37
2023-03-13T21:51:44.608Z,974.48
2023-03-13T21:52:44.603Z,974.54
2023-03-13T21:53:44.783Z,974.49
2023-03-13T21:54:44.604Z,974.60
2023-03-13T21:55:44.569Z,974.56
2023-03-13T21:56:44.575Z,974.54
2023-03-13T21:57:44.558Z,974.62
2023-03-13T21:58:44.579Z,974.60
2023-03-13T21:59:44.491Z,974.60
2023-03-13T22:00:44.502Z,974.57
2023-03-13T22:01:44.547Z,974.67
2023-03-13T22:02:44.460Z,974.57
2023-03-13T22:03:44.479Z,974.60
2023-03-13T22:04:44.412Z,974.61
2023-03-13T22:05:45.469Z,974.55
2023-03-13T22:06:44.415Z,974.47
2023-03-13T22:07:45.708Z,974.54
2023-03-13T22:08:44.389Z,974.50
2023-03-13T22:09:44.329Z,974.68
2023-03-13T22:10:44.305Z,974.57
2023-03-13T22:11:44.285Z,974.52
2023-03-13T22:12:44.263Z,974.44
2023-03-13T22:13:44.261Z,974.51
2023-03-13T22:14:44.233Z,974.43
2023-03-13T22:15:44.268Z,974.45
2023-03-13T22:16:44.211Z,974.43
2023-03-13T22:17:44.209Z,974.41
2023-03-13T22:18:44.237Z,974.38
2023-03-13T22:19:44.150Z,974.41
2023-03-13T22:20:44.150Z,974.37
2023-03-13T22:21:44.162Z,974.37
2023-03-13T22:22:44.107Z,974.41
2023-03-13T22:23:44.087Z,974.44
2023-03-13T22:24:44.124Z,974.33
2023-03-13T22:25:44.124Z,974.31
2023-03-13T22:26:44.043Z,974.28
2023-03-13T22:27:44.024Z,974.34
2023-03-13T22:28:44.010Z,974.39
2023-03-13T22:29:43.986Z,974.42
2023-03-13T22:30:43.973Z,974.43
2023-03-13T22:31:43.963Z,974.38
2023-03-13T22:32:43.983Z,974.38
2023-03-13T22:33:43.921Z,974.38
2023-03-13T22:34:43.926Z,974.47
2023-03-13T22:35:43.907Z,974.54
2023-03-13T22:36:43.878Z,974.63
2023-03-13T22:37:43.863Z,974.65
2023-03-13T22:38:43.852Z,974.61
2023-03-13T22:39:43.835Z,974.58
2023-03-13T22:40:43.803Z,974.60
2023-03-13T22:41:43.800Z,974.58
2023-03-13T22:42:43.777Z,974.65
2023-03-13T22:43:43.768Z,974.69
2023-03-13T22:44:43.737Z,974.75
2023-03-13T22:45:43.734Z,974.81
2023-03-13T22:46:43.727Z,974.83
2023-03-13T22:47:43.730Z,974.76
2023-03-13T22:48:43.674Z,974.75
2023-03-13T22:49:43.656Z,974.66
2023-03-13T22:50:43.751Z,974.67
2023-03-13T22:51:43.626Z,974.66
2023-03-13T22:52:43.609Z,974.58
2023-03-13T22:53:43.602Z,974.63
2023-03-13T22:54:43.581Z,974.69
2023-03-13T22:55:43.559Z,974.59
2023-03-13T22:56:43.543Z,974.61
2023-03-13T22:57:43.539Z,974.62
2023-03-13T23:00:24.197Z,974.52
2023-03-13T23:01:24.035Z,974.51
2023-03-13T23:02:23.993Z,974.43
2023-03-13T23:03:24.304Z,974.46
2023-03-13T23:04:23.973Z,974.37
2023-03-13T23:05:23.941Z,974.23
2023-03-13T23:06:23.926Z,974.17
2023-03-13T23:07:23.928Z,974.07
2023-03-13T23:08:23.891Z,974.06
2023-03-13T23:09:23.879Z,974.15
2023-03-13T23:10:23.864Z,974.13
2023-03-13T23:11:23.845Z,974.08
2023-03-13T23:12:23.836Z,974.08
2023-03-13T23:13:23.823Z,974.09
2023-03-13T23:14:23.798Z,974.04
2023-03-13T23:15:24.675Z,974.17
2023-03-13T23:16:23.766Z,974.35
2023-03-13T23:17:23.762Z,974.32
2023-03-13T23:18:23.744Z,974.37
2023-03-13T23:19:23.730Z,974.38
2023-03-13T23:20:23.706Z,974.42
2023-03-13T23:21:23.687Z,974.40
2023-03-13T23:22:23.671Z,974.48
2023-03-13T23:23:23.657Z,974.44
2023-03-13T23:24:23.641Z,974.58
2023-03-13T23:25:23.620Z,974.62
2023-03-13T23:26:23.602Z,974.63
2023-03-13T23:27:23.587Z,974.63
2023-03-13T23:28:23.570Z,974.60
2023-03-13T23:29:23.558Z,974.66
2023-03-13T23:30:23.544Z,974.74
2023-03-13T23:31:23.527Z,974.84
2023-03-13T23:32:23.576Z,974.81
2023-03-13T23:33:23.503Z,974.87
2023-03-13T23:34:23.492Z,974.91
2023-03-13T23:35:23.468Z,974.75
2023-03-13T23:36:23.442Z,974.88
2023-03-13T23:37:23.426Z,974.77
2023-03-13T23:38:23.415Z,974.89
2023-03-13T23:39:23.401Z,974.85
2023-03-13T23:40:23.389Z,974.82
2023-03-13T23:41:23.367Z,974.83
2023-03-13T23:42:23.357Z,974.84
2023-03-13T23:43:23.333Z,974.85
2023-03-13T23:44:23.316Z,974.86
2023-03-13T23:45:23.300Z,974.98
2023-03-13T23:46:23.294Z,974.94
2023-03-13T23:47:23.270Z,974.99
2023-03-13T23:48:23.257Z,975.10
2023-03-13T23:49:23.235Z,975.18
2023-03-13T23:50:23.256Z,975.15
2023-03-13T23:51:23.216Z,975.14
2023-03-13T23:52:23.186Z,975.18
2023-03-13T23:53:23.182Z,975.23
2023-03-13T23:54:23.162Z,975.32
2023-03-13T23:55:23.140Z,975.28
2023-03-13T23:56:23.122Z,975.18
2023-03-13T23:57:23.110Z,975.14
2023-03-13T23:58:23.093Z,975.24
2023-03-13T23:59:23.080Z,975.22
